Millhaven, Canada
Current Conditions -  °F | °C
As of 3:00 PM on Wednesday 28 Jan 2015 (Local Time) from CYGK Reporting Station
Few Clouds Few Clouds  
Wind Chill: 16°   Ceiling: Unl
Heat Index: 23°   Visibility: 15mi
Dew Point:   Wind: 6mph
Humidity: 43%   Direction: 190°S
Pressure: 30.26"   Gusts: NA
Location:  44.2°N, 76.75°W
Report Text: CYGK 282000Z 19005KT 15SM FEW250 M05/M16 A3026 RMK CI1 CI TR SLP253
Loading
Personal Weather Stations






























Interactive Weather Map New forecast layout! Learn more

10-Day Weather Forecast

Advertisements
Track Severe Weather on mobile